Bismarck, ND

11:58 PM CST on February 27, 2015 (GMT -0600)
Mercer County Regional | Change Station
CLOSE
Current Station
Airport
Location: Hazen,
Elevation: 1814 ft
Nearby Weather Stations

Elev 1814 ft 47.29 °N, 101.58 °W | Updated 3 minutes ago

Mostly Cloudy
Mostly Cloudy
12 °F
Feels Like -3 °F
N
14
Wind Variable Wind from SSE

Today
High -- | Low -- °F
--% Chance of Precip.
Yesterday
High -- | Low -- °F
Precip. -- in
7:26 AM 6:25 PM
Waxing Gibbous, 75% visible
Pressure 30.10 in
Visibility 10.0 miles
Clouds Few 4400 ft
Scattered Clouds 5000 ft
Windchill -3 °F
Dew Point 1 °F
Humidity 62%
Rainfall 0.00 in
Snow Depth Not available.
UV 0 out of 12
Pollen .30 out of 12
Air Quality Not available.
Flu Activity Not available.
METAR KHZE 280555Z AUTO 16012KT 10SM FEW044 SCT050 M11/M17 A3010 RMK AO2

More Conditions Fewer Conditions

Pressure 30.10 in
Visibility 10.0 miles
Clouds Few 4400 ft
Scattered Clouds 5000 ft
Windchill -3 °F
Dew Point 1 °F
Humidity 62%
Rainfall 0.00 in
Snow Depth Not available.
UV 0 out of 12
Pollen .30 out of 12
Air Quality Not available.
Flu Activity Not available.
METAR KHZE 280555Z AUTO 16012KT 10SM FEW044 SCT050 M11/M17 A3010 RMK AO2

More Conditions Fewer Conditions

10-Day Weather Forecast

Almanac

Astronomy

Feb. 27, 2015 Rise Set
Actual Time
Civil Twilight
Nautical Twilight
Astronomical Twilight
Moon
Length of Visible Light
Length of Day
Tomorrow will be .
, % of the Moon is Illuminated

Today's Extremes

State Highs State Lows

Community

WunderPhotos

Upload Photos

1,800,972 photos uploaded!

WunderBlogs® & News

Nearby

Air Quality

  Air Quality AQ Index Pollutant
Not available.

Snow Depth

Station Depth Elevation

Earthquake Activity

City Distance Mag. Time & Date
Minimum magnitude displayed is 2.5.

Coastal Water Temperatures

Place Temperature

Nearby Weather Stations